Snoqualmie River: Snoqualmie Falls station

back to: Snoqualmie river
Snoqualmie Falls station Summary - (NOAA Hydrograph: SQUW1)
flood stage: 12.88 ft
Latest reading:
Fri07/10 08:10 pm 4.56 ft 1421 cfs (steady)
Past 24hr max:
Thu07/09 08:10 pm 4.69 ft 1529 cfs
Forecasted crests: (published Fri 07/10/20 02:36 pm)
Sun07/12 05:00 pm 4.62 ft 1470 cfs

Snoqualmie Falls station Details

Latest Readings

Last 100 Readings:
Fri07/10 08:10 pm 4.56 ft 1421 cfs
Fri07/10 08:05 pm 4.56 ft 1421 cfs
Fri07/10 08:00 pm 4.56 ft 1421 cfs
Fri07/10 07:55 pm 4.55 ft 1413 cfs
Fri07/10 07:50 pm 4.56 ft 1421 cfs
Fri07/10 07:45 pm 4.56 ft 1421 cfs
Fri07/10 07:40 pm 4.56 ft 1421 cfs
Fri07/10 07:35 pm 4.56 ft 1421 cfs
Fri07/10 07:30 pm 4.56 ft 1421 cfs
Fri07/10 07:25 pm 4.56 ft 1421 cfs
Fri07/10 07:20 pm 4.55 ft 1413 cfs
Fri07/10 07:15 pm 4.55 ft 1413 cfs
Fri07/10 07:10 pm 4.56 ft 1421 cfs
Fri07/10 07:05 pm 4.56 ft 1421 cfs
Fri07/10 07:00 pm 4.56 ft 1421 cfs
Fri07/10 06:55 pm 4.56 ft 1421 cfs
Fri07/10 06:50 pm 4.56 ft 1421 cfs
Fri07/10 06:45 pm 4.56 ft 1421 cfs
Fri07/10 06:40 pm 4.56 ft 1421 cfs
Fri07/10 06:35 pm 4.57 ft 1430 cfs
Fri07/10 06:30 pm 4.57 ft 1430 cfs
Fri07/10 06:25 pm 4.56 ft 1421 cfs
Fri07/10 06:20 pm 4.55 ft 1413 cfs
Fri07/10 06:15 pm 4.56 ft 1421 cfs
Fri07/10 06:10 pm 4.56 ft 1421 cfs
Fri07/10 06:05 pm 4.56 ft 1421 cfs
Fri07/10 06:00 pm 4.57 ft 1430 cfs
Fri07/10 05:55 pm 4.58 ft 1438 cfs
Fri07/10 05:50 pm 4.57 ft 1430 cfs
Fri07/10 05:45 pm 4.57 ft 1430 cfs
Fri07/10 05:40 pm 4.57 ft 1430 cfs
Fri07/10 05:35 pm 4.57 ft 1430 cfs
Fri07/10 05:30 pm 4.57 ft 1430 cfs
Fri07/10 05:25 pm 4.57 ft 1430 cfs
Fri07/10 05:20 pm 4.58 ft 1438 cfs
Fri07/10 05:15 pm 4.58 ft 1438 cfs
Fri07/10 05:10 pm 4.57 ft 1430 cfs
Fri07/10 05:05 pm 4.57 ft 1430 cfs
Fri07/10 05:00 pm 4.58 ft 1438 cfs
Fri07/10 04:55 pm 4.57 ft 1430 cfs
Fri07/10 04:50 pm 4.57 ft 1430 cfs
Fri07/10 04:45 pm 4.58 ft 1438 cfs
Fri07/10 04:40 pm 4.57 ft 1430 cfs
Fri07/10 04:35 pm 4.58 ft 1438 cfs
Fri07/10 04:30 pm 4.58 ft 1438 cfs
Fri07/10 04:25 pm 4.58 ft 1438 cfs
Fri07/10 04:20 pm 4.58 ft 1438 cfs
Fri07/10 04:15 pm 4.57 ft 1430 cfs
Fri07/10 04:10 pm 4.57 ft 1430 cfs
Fri07/10 04:05 pm 4.57 ft 1430 cfs
Fri07/10 04:00 pm 4.57 ft 1430 cfs
Fri07/10 03:55 pm 4.57 ft 1430 cfs
Fri07/10 03:50 pm 4.58 ft 1438 cfs
Fri07/10 03:45 pm 4.58 ft 1438 cfs
Fri07/10 03:40 pm 4.59 ft 1446 cfs
Fri07/10 03:35 pm 4.57 ft 1430 cfs
Fri07/10 03:30 pm 4.58 ft 1438 cfs
Fri07/10 03:25 pm 4.58 ft 1438 cfs
Fri07/10 03:20 pm 4.58 ft 1438 cfs
Fri07/10 03:15 pm 4.58 ft 1438 cfs
Fri07/10 03:10 pm 4.59 ft 1446 cfs
Fri07/10 03:05 pm 4.57 ft 1430 cfs
Fri07/10 03:00 pm 4.59 ft 1446 cfs
Fri07/10 02:55 pm 4.6 ft 1454 cfs
Fri07/10 02:50 pm 4.58 ft 1438 cfs
Fri07/10 02:45 pm 4.58 ft 1438 cfs
Fri07/10 02:40 pm 4.59 ft 1446 cfs
Fri07/10 02:35 pm 4.59 ft 1446 cfs
Fri07/10 02:30 pm 4.59 ft 1446 cfs
Fri07/10 02:25 pm 4.59 ft 1446 cfs
Fri07/10 02:20 pm 4.58 ft 1438 cfs
Fri07/10 02:15 pm 4.59 ft 1446 cfs
Fri07/10 02:10 pm 4.58 ft 1438 cfs
Fri07/10 02:05 pm 4.58 ft 1438 cfs
Fri07/10 02:00 pm 4.59 ft 1446 cfs
Fri07/10 01:55 pm 4.59 ft 1446 cfs
Fri07/10 01:50 pm 4.59 ft 1446 cfs
Fri07/10 01:45 pm 4.58 ft 1438 cfs
Fri07/10 01:40 pm 4.59 ft 1446 cfs
Fri07/10 01:35 pm 4.58 ft 1438 cfs
Fri07/10 01:30 pm 4.59 ft 1446 cfs
Fri07/10 01:25 pm 4.59 ft 1446 cfs
Fri07/10 01:20 pm 4.58 ft 1438 cfs
Fri07/10 01:15 pm 4.59 ft 1446 cfs
Fri07/10 01:10 pm 4.59 ft 1446 cfs
Fri07/10 01:05 pm 4.59 ft 1446 cfs
Fri07/10 01:00 pm 4.59 ft 1446 cfs
Fri07/10 12:55 pm 4.6 ft 1454 cfs
Fri07/10 12:50 pm 4.59 ft 1446 cfs
Fri07/10 12:45 pm 4.59 ft 1446 cfs
Fri07/10 12:40 pm 4.59 ft 1446 cfs
Fri07/10 12:35 pm 4.59 ft 1446 cfs
Fri07/10 12:30 pm 4.6 ft 1454 cfs
Fri07/10 12:25 pm 4.6 ft 1454 cfs
Fri07/10 12:20 pm 4.59 ft 1446 cfs
Fri07/10 12:15 pm 4.59 ft 1446 cfs
Fri07/10 12:10 pm 4.59 ft 1446 cfs
Fri07/10 12:05 pm 4.58 ft 1438 cfs
Fri07/10 12:00 pm 4.59 ft 1446 cfs
Fri07/10 11:55 am 4.59 ft 1446 cfs

Latest Forecasts

Currently Forecasted Readings:
Fri07/10 05:00 pm 4.58 ft 1440 cfs
Fri07/10 11:00 pm 4.53 ft 1401 cfs
Sat07/11 05:00 am 4.48 ft 1359 cfs
Sat07/11 11:00 am 4.43 ft 1322 cfs
Sat07/11 05:00 pm 4.4 ft 1290 cfs
Sat07/11 11:00 pm 4.38 ft 1272 cfs
Sun07/12 05:00 am 4.43 ft 1315 cfs
Sun07/12 11:00 am 4.56 ft 1421 cfs
Sun07/12 05:00 pm 4.62 ft 1470 cfs
Sun07/12 11:00 pm 4.56 ft 1420 cfs
Mon07/13 05:00 am 4.46 ft 1343 cfs
Mon07/13 11:00 am 4.39 ft 1281 cfs
Mon07/13 05:00 pm 4.34 ft 1234 cfs
Mon07/13 11:00 pm 4.29 ft 1196 cfs
Tue07/14 05:00 am 4.25 ft 1161 cfs
Tue07/14 11:00 am 4.22 ft 1131 cfs
Tue07/14 05:00 pm 4.18 ft 1108 cfs
Tue07/14 11:00 pm 4.14 ft 1087 cfs
Wed07/15 05:00 am 4.11 ft 1067 cfs
Wed07/15 11:00 am 4.07 ft 1048 cfs
Wed07/15 05:00 pm 4.04 ft 1032 cfs
Wed07/15 11:00 pm 4.03 ft 1024 cfs
Thu07/16 05:00 am 4.01 ft 1010 cfs
Thu07/16 11:00 am 3.97 ft 992 cfs
Thu07/16 05:00 pm 3.95 ft 977 cfs
Thu07/16 11:00 pm 3.92 ft 963 cfs
Fri07/17 05:00 am 3.89 ft 950 cfs
Fri07/17 11:00 am 3.87 ft 938 cfs
Fri07/17 05:00 pm 3.84 ft 928 cfs
Fri07/17 11:00 pm 3.82 ft 918 cfs
Sat07/18 05:00 am 3.8 ft 908 cfs
Sat07/18 11:00 am 3.78 ft 898 cfs
Sat07/18 05:00 pm 3.76 ft 890 cfs
Sat07/18 11:00 pm 3.74 ft 882 cfs
Sun07/19 05:00 am 3.72 ft 874 cfs
Sun07/19 11:00 am 3.7 ft 865 cfs
Sun07/19 05:00 pm 3.69 ft 858 cfs
Sun07/19 11:00 pm 3.67 ft 850 cfs
Mon07/20 05:00 am 3.65 ft 843 cfs

Snoqualmie River flood gauge data supplied by the
National Weather Service Northwest River Forecast Center.

Sign up for Floodzilla alerts.